sensor_id;sensor_type;location;lat;lon;timestamp;P1;durP1;ratioP1;P2;durP2;ratioP2
32250;SDS011;41295;48.518;9.206;2023-05-07T00:01:17;6.32;;;3.65;;
32250;SDS011;41295;48.518;9.206;2023-05-07T00:03:20;8.43;;;4.38;;
32250;SDS011;41295;48.518;9.206;2023-05-07T00:05:23;11.15;;;4.00;;
32250;SDS011;41295;48.518;9.206;2023-05-07T00:07:26;9.55;;;4.03;;
32250;SDS011;41295;48.518;9.206;2023-05-07T00:09:29;6.90;;;3.67;;
32250;SDS011;41295;48.518;9.206;2023-05-07T00:11:32;7.38;;;4.07;;
32250;SDS011;41295;48.518;9.206;2023-05-07T00:13:37;8.55;;;3.67;;
32250;SDS011;41295;48.518;9.206;2023-05-07T00:15:40;6.18;;;3.80;;
32250;SDS011;41295;48.518;9.206;2023-05-07T00:17:42;6.65;;;3.67;;
32250;SDS011;41295;48.518;9.206;2023-05-07T00:19:45;6.25;;;3.72;;
32250;SDS011;41295;48.518;9.206;2023-05-07T00:21:48;6.95;;;3.90;;
32250;SDS011;41295;48.518;9.206;2023-05-07T00:23:51;7.47;;;3.80;;
32250;SDS011;41295;48.518;9.206;2023-05-07T00:25:55;9.98;;;3.58;;
32250;SDS011;41295;48.518;9.206;2023-05-07T00:27:58;13.23;;;4.00;;
32250;SDS011;41295;48.518;9.206;2023-05-07T00:30:05;5.43;;;3.40;;
32250;SDS011;41295;48.518;9.206;2023-05-07T00:32:09;8.68;;;4.10;;
32250;SDS011;41295;48.518;9.206;2023-05-07T00:34:11;8.25;;;4.00;;
32250;SDS011;41295;48.518;9.206;2023-05-07T00:36:14;5.00;;;3.45;;
32250;SDS011;41295;48.518;9.206;2023-05-07T00:38:17;6.32;;;3.83;;
32250;SDS011;41295;48.518;9.206;2023-05-07T00:40:19;4.78;;;3.53;;
32250;SDS011;41295;48.518;9.206;2023-05-07T00:42:23;6.03;;;3.60;;
32250;SDS011;41295;48.518;9.206;2023-05-07T00:44:26;9.32;;;3.88;;
32250;SDS011;41295;48.518;9.206;2023-05-07T00:46:29;6.25;;;3.40;;
32250;SDS011;41295;48.518;9.206;2023-05-07T00:48:33;11.68;;;4.03;;
32250;SDS011;41295;48.518;9.206;2023-05-07T00:50:36;8.68;;;3.80;;
32250;SDS011;41295;48.518;9.206;2023-05-07T00:52:38;7.55;;;3.83;;
32250;SDS011;41295;48.518;9.206;2023-05-07T00:54:42;9.93;;;3.55;;
32250;SDS011;41295;48.518;9.206;2023-05-07T00:56:45;5.30;;;3.30;;
32250;SDS011;41295;48.518;9.206;2023-05-07T00:58:49;7.93;;;3.88;;
32250;SDS011;41295;48.518;9.206;2023-05-07T01:00:52;7.38;;;3.63;;
32250;SDS011;41295;48.518;9.206;2023-05-07T01:02:55;7.10;;;3.70;;
32250;SDS011;41295;48.518;9.206;2023-05-07T01:04:58;6.03;;;3.72;;
32250;SDS011;41295;48.518;9.206;2023-05-07T01:07:02;5.80;;;3.63;;
32250;SDS011;41295;48.518;9.206;2023-05-07T01:09:06;4.60;;;3.50;;
32250;SDS011;41295;48.518;9.206;2023-05-07T01:11:10;4.97;;;3.88;;
32250;SDS011;41295;48.518;9.206;2023-05-07T01:13:13;7.63;;;4.43;;
32250;SDS011;41295;48.518;9.206;2023-05-07T01:15:18;7.25;;;3.50;;
32250;SDS011;41295;48.518;9.206;2023-05-07T01:17:21;6.53;;;3.95;;
32250;SDS011;41295;48.518;9.206;2023-05-07T01:19:24;6.70;;;3.75;;
32250;SDS011;41295;48.518;9.206;2023-05-07T01:21:27;4.88;;;3.58;;
32250;SDS011;41295;48.518;9.206;2023-05-07T01:23:36;6.70;;;3.78;;
32250;SDS011;41295;48.518;9.206;2023-05-07T01:25:40;8.65;;;3.85;;
32250;SDS011;41295;48.518;9.206;2023-05-07T01:27:43;4.43;;;3.40;;
32250;SDS011;41295;48.518;9.206;2023-05-07T01:29:45;5.68;;;3.60;;
32250;SDS011;41295;48.518;9.206;2023-05-07T01:31:48;4.93;;;3.67;;
32250;SDS011;41295;48.518;9.206;2023-05-07T01:33:54;8.05;;;3.70;;
32250;SDS011;41295;48.518;9.206;2023-05-07T01:35:58;5.85;;;3.72;;
32250;SDS011;41295;48.518;9.206;2023-05-07T01:38:03;6.10;;;3.78;;
32250;SDS011;41295;48.518;9.206;2023-05-07T01:40:09;7.28;;;3.47;;
32250;SDS011;41295;48.518;9.206;2023-05-07T01:42:12;6.43;;;3.17;;
32250;SDS011;41295;48.518;9.206;2023-05-07T01:44:15;8.90;;;3.45;;
32250;SDS011;41295;48.518;9.206;2023-05-07T01:46:19;4.72;;;3.05;;
32250;SDS011;41295;48.518;9.206;2023-05-07T01:48:22;5.82;;;3.60;;
32250;SDS011;41295;48.518;9.206;2023-05-07T01:50:26;9.95;;;3.70;;
32250;SDS011;41295;48.518;9.206;2023-05-07T01:52:29;12.55;;;3.35;;
32250;SDS011;41295;48.518;9.206;2023-05-07T01:54:33;6.72;;;3.70;;
32250;SDS011;41295;48.518;9.206;2023-05-07T01:56:37;6.07;;;4.00;;
32250;SDS011;41295;48.518;9.206;2023-05-07T01:58:39;6.10;;;3.25;;
32250;SDS011;41295;48.518;9.206;2023-05-07T02:00:42;7.22;;;3.88;;
32250;SDS011;41295;48.518;9.206;2023-05-07T02:02:44;11.10;;;3.78;;
32250;SDS011;41295;48.518;9.206;2023-05-07T02:04:47;4.90;;;3.60;;
32250;SDS011;41295;48.518;9.206;2023-05-07T02:06:50;8.68;;;3.40;;
32250;SDS011;41295;48.518;9.206;2023-05-07T02:08:53;8.75;;;3.60;;
32250;SDS011;41295;48.518;9.206;2023-05-07T02:10:56;8.18;;;3.42;;
32250;SDS011;41295;48.518;9.206;2023-05-07T02:13:00;8.90;;;3.70;;
32250;SDS011;41295;48.518;9.206;2023-05-07T02:15:03;5.07;;;3.50;;
32250;SDS011;41295;48.518;9.206;2023-05-07T02:17:07;9.48;;;4.45;;
32250;SDS011;41295;48.518;9.206;2023-05-07T02:19:09;5.32;;;3.58;;
32250;SDS011;41295;48.518;9.206;2023-05-07T02:21:12;9.68;;;3.70;;
32250;SDS011;41295;48.518;9.206;2023-05-07T02:23:15;7.93;;;3.60;;
32250;SDS011;41295;48.518;9.206;2023-05-07T02:25:17;9.80;;;3.80;;
32250;SDS011;41295;48.518;9.206;2023-05-07T02:27:20;7.57;;;3.40;;
32250;SDS011;41295;48.518;9.206;2023-05-07T02:29:24;4.55;;;3.30;;
32250;SDS011;41295;48.518;9.206;2023-05-07T02:31:26;10.13;;;3.08;;
32250;SDS011;41295;48.518;9.206;2023-05-07T02:33:29;4.45;;;3.35;;
32250;SDS011;41295;48.518;9.206;2023-05-07T02:35:32;9.48;;;3.33;;
32250;SDS011;41295;48.518;9.206;2023-05-07T02:37:34;16.55;;;3.65;;
32250;SDS011;41295;48.518;9.206;2023-05-07T02:39:37;8.60;;;3.30;;
32250;SDS011;41295;48.518;9.206;2023-05-07T02:41:39;11.00;;;3.40;;
32250;SDS011;41295;48.518;9.206;2023-05-07T02:43:42;8.65;;;3.40;;
32250;SDS011;41295;48.518;9.206;2023-05-07T02:45:46;6.28;;;3.22;;
32250;SDS011;41295;48.518;9.206;2023-05-07T02:47:49;6.85;;;4.18;;
32250;SDS011;41295;48.518;9.206;2023-05-07T02:49:51;8.95;;;3.30;;
32250;SDS011;41295;48.518;9.206;2023-05-07T02:51:54;11.32;;;3.65;;
32250;SDS011;41295;48.518;9.206;2023-05-07T02:53:57;8.38;;;3.35;;
32250;SDS011;41295;48.518;9.206;2023-05-07T02:56:00;5.80;;;3.40;;
32250;SDS011;41295;48.518;9.206;2023-05-07T02:58:02;6.07;;;3.85;;
32250;SDS011;41295;48.518;9.206;2023-05-07T03:00:12;7.15;;;4.10;;
32250;SDS011;41295;48.518;9.206;2023-05-07T03:02:17;6.18;;;3.50;;
32250;SDS011;41295;48.518;9.206;2023-05-07T03:04:19;8.75;;;3.22;;
32250;SDS011;41295;48.518;9.206;2023-05-07T03:06:22;6.85;;;3.63;;
32250;SDS011;41295;48.518;9.206;2023-05-07T03:08:25;5.97;;;3.50;;
32250;SDS011;41295;48.518;9.206;2023-05-07T03:10:27;4.50;;;3.42;;
32250;SDS011;41295;48.518;9.206;2023-05-07T03:12:30;7.90;;;3.25;;
32250;SDS011;41295;48.518;9.206;2023-05-07T03:14:33;4.90;;;3.72;;
32250;SDS011;41295;48.518;9.206;2023-05-07T03:16:36;8.35;;;3.90;;
32250;SDS011;41295;48.518;9.206;2023-05-07T03:18:40;9.20;;;3.58;;
32250;SDS011;41295;48.518;9.206;2023-05-07T03:20:42;6.25;;;3.40;;
32250;SDS011;41295;48.518;9.206;2023-05-07T03:22:45;4.93;;;3.75;;
32250;SDS011;41295;48.518;9.206;2023-05-07T03:24:48;8.48;;;3.40;;
32250;SDS011;41295;48.518;9.206;2023-05-07T03:26:50;6.22;;;3.30;;
32250;SDS011;41295;48.518;9.206;2023-05-07T03:28:53;6.10;;;3.60;;
32250;SDS011;41295;48.518;9.206;2023-05-07T03:30:57;6.55;;;3.83;;
32250;SDS011;41295;48.518;9.206;2023-05-07T03:33:00;6.43;;;3.80;;
32250;SDS011;41295;48.518;9.206;2023-05-07T03:35:04;7.43;;;3.78;;
32250;SDS011;41295;48.518;9.206;2023-05-07T03:37:07;6.03;;;3.38;;
32250;SDS011;41295;48.518;9.206;2023-05-07T03:39:09;4.95;;;3.53;;
32250;SDS011;41295;48.518;9.206;2023-05-07T03:41:12;7.00;;;3.22;;
32250;SDS011;41295;48.518;9.206;2023-05-07T03:43:15;10.45;;;3.65;;
32250;SDS011;41295;48.518;9.206;2023-05-07T03:45:17;7.03;;;3.80;;
32250;SDS011;41295;48.518;9.206;2023-05-07T03:47:20;6.22;;;3.53;;
32250;SDS011;41295;48.518;9.206;2023-05-07T03:49:23;9.77;;;4.13;;
32250;SDS011;41295;48.518;9.206;2023-05-07T03:51:27;6.00;;;3.67;;
32250;SDS011;41295;48.518;9.206;2023-05-07T03:53:29;6.65;;;3.95;;
32250;SDS011;41295;48.518;9.206;2023-05-07T03:55:32;5.07;;;3.75;;
32250;SDS011;41295;48.518;9.206;2023-05-07T03:57:34;7.65;;;3.95;;
32250;SDS011;41295;48.518;9.206;2023-05-07T03:59:40;5.82;;;3.90;;
32250;SDS011;41295;48.518;9.206;2023-05-07T04:01:42;8.05;;;3.97;;
32250;SDS011;41295;48.518;9.206;2023-05-07T04:03:46;8.10;;;3.78;;
32250;SDS011;41295;48.518;9.206;2023-05-07T04:05:48;7.88;;;3.83;;
32250;SDS011;41295;48.518;9.206;2023-05-07T04:07:53;8.98;;;3.92;;
32250;SDS011;41295;48.518;9.206;2023-05-07T04:09:55;6.10;;;3.90;;
32250;SDS011;41295;48.518;9.206;2023-05-07T04:11:58;9.52;;;4.15;;
32250;SDS011;41295;48.518;9.206;2023-05-07T04:14:00;8.43;;;4.22;;
32250;SDS011;41295;48.518;9.206;2023-05-07T04:16:03;8.07;;;3.70;;
32250;SDS011;41295;48.518;9.206;2023-05-07T04:18:07;7.88;;;3.92;;
32250;SDS011;41295;48.518;9.206;2023-05-07T04:20:10;7.13;;;3.70;;
32250;SDS011;41295;48.518;9.206;2023-05-07T04:22:17;8.75;;;4.30;;
32250;SDS011;41295;48.518;9.206;2023-05-07T04:24:21;6.32;;;3.42;;
32250;SDS011;41295;48.518;9.206;2023-05-07T04:26:23;6.63;;;3.92;;
32250;SDS011;41295;48.518;9.206;2023-05-07T04:28:26;7.97;;;4.40;;
32250;SDS011;41295;48.518;9.206;2023-05-07T04:30:29;6.57;;;4.45;;
32250;SDS011;41295;48.518;9.206;2023-05-07T04:32:31;6.10;;;3.67;;
32250;SDS011;41295;48.518;9.206;2023-05-07T04:34:34;7.68;;;3.70;;
32250;SDS011;41295;48.518;9.206;2023-05-07T04:36:37;5.28;;;3.67;;
32250;SDS011;41295;48.518;9.206;2023-05-07T04:38:40;6.75;;;4.43;;
32250;SDS011;41295;48.518;9.206;2023-05-07T04:40:44;12.15;;;5.05;;
32250;SDS011;41295;48.518;9.206;2023-05-07T04:42:48;5.95;;;4.10;;
32250;SDS011;41295;48.518;9.206;2023-05-07T04:44:52;10.55;;;4.57;;
32250;SDS011;41295;48.518;9.206;2023-05-07T04:46:55;4.93;;;4.28;;
32250;SDS011;41295;48.518;9.206;2023-05-07T04:48:58;7.50;;;4.35;;
32250;SDS011;41295;48.518;9.206;2023-05-07T04:51:01;7.53;;;4.50;;
32250;SDS011;41295;48.518;9.206;2023-05-07T04:53:03;7.18;;;4.85;;
32250;SDS011;41295;48.518;9.206;2023-05-07T04:55:06;9.00;;;5.15;;
32250;SDS011;41295;48.518;9.206;2023-05-07T04:57:11;9.02;;;5.10;;
32250;SDS011;41295;48.518;9.206;2023-05-07T04:59:14;5.90;;;4.47;;
32250;SDS011;41295;48.518;9.206;2023-05-07T05:01:16;8.27;;;4.18;;
32250;SDS011;41295;48.518;9.206;2023-05-07T05:03:19;8.07;;;5.32;;
32250;SDS011;41295;48.518;9.206;2023-05-07T05:05:22;6.40;;;4.85;;
32250;SDS011;41295;48.518;9.206;2023-05-07T05:07:25;8.68;;;4.97;;
32250;SDS011;41295;48.518;9.206;2023-05-07T05:09:27;11.65;;;4.82;;
32250;SDS011;41295;48.518;9.206;2023-05-07T05:11:30;7.53;;;5.03;;
32250;SDS011;41295;48.518;9.206;2023-05-07T05:13:34;9.02;;;4.70;;
32250;SDS011;41295;48.518;9.206;2023-05-07T05:15:36;7.55;;;4.43;;
32250;SDS011;41295;48.518;9.206;2023-05-07T05:17:39;6.90;;;4.68;;
32250;SDS011;41295;48.518;9.206;2023-05-07T05:19:42;10.02;;;4.50;;
32250;SDS011;41295;48.518;9.206;2023-05-07T05:21:44;15.15;;;5.50;;
32250;SDS011;41295;48.518;9.206;2023-05-07T05:23:47;8.73;;;5.38;;
32250;SDS011;41295;48.518;9.206;2023-05-07T05:25:49;11.57;;;5.38;;
32250;SDS011;41295;48.518;9.206;2023-05-07T05:27:52;10.57;;;5.25;;
32250;SDS011;41295;48.518;9.206;2023-05-07T05:29:56;7.30;;;5.30;;
32250;SDS011;41295;48.518;9.206;2023-05-07T05:31:58;6.85;;;5.00;;
32250;SDS011;41295;48.518;9.206;2023-05-07T05:34:02;9.27;;;5.15;;
32250;SDS011;41295;48.518;9.206;2023-05-07T05:36:05;7.40;;;4.57;;
32250;SDS011;41295;48.518;9.206;2023-05-07T05:38:08;8.55;;;4.90;;
32250;SDS011;41295;48.518;9.206;2023-05-07T05:40:11;7.22;;;4.70;;
32250;SDS011;41295;48.518;9.206;2023-05-07T05:42:14;11.70;;;4.68;;
32250;SDS011;41295;48.518;9.206;2023-05-07T05:44:16;6.57;;;4.53;;
32250;SDS011;41295;48.518;9.206;2023-05-07T05:46:20;5.70;;;4.47;;
32250;SDS011;41295;48.518;9.206;2023-05-07T05:48:23;7.10;;;4.85;;
32250;SDS011;41295;48.518;9.206;2023-05-07T05:50:26;7.38;;;4.60;;
32250;SDS011;41295;48.518;9.206;2023-05-07T05:52:28;9.43;;;4.38;;
32250;SDS011;41295;48.518;9.206;2023-05-07T05:54:31;11.45;;;4.72;;
32250;SDS011;41295;48.518;9.206;2023-05-07T05:56:33;8.05;;;4.57;;
32250;SDS011;41295;48.518;9.206;2023-05-07T05:58:36;8.40;;;4.68;;
32250;SDS011;41295;48.518;9.206;2023-05-07T06:00:39;6.45;;;4.75;;
32250;SDS011;41295;48.518;9.206;2023-05-07T06:02:43;7.07;;;4.50;;
32250;SDS011;41295;48.518;9.206;2023-05-07T06:04:46;6.05;;;4.85;;
32250;SDS011;41295;48.518;9.206;2023-05-07T06:06:48;6.85;;;4.47;;
32250;SDS011;41295;48.518;9.206;2023-05-07T06:08:51;9.50;;;5.00;;
32250;SDS011;41295;48.518;9.206;2023-05-07T06:10:54;10.38;;;4.60;;
32250;SDS011;41295;48.518;9.206;2023-05-07T06:12:56;6.72;;;4.90;;
32250;SDS011;41295;48.518;9.206;2023-05-07T06:14:59;8.05;;;5.35;;
32250;SDS011;41295;48.518;9.206;2023-05-07T06:17:02;6.75;;;4.82;;
32250;SDS011;41295;48.518;9.206;2023-05-07T06:19:07;10.43;;;5.18;;
32250;SDS011;41295;48.518;9.206;2023-05-07T06:21:09;7.30;;;5.22;;
32250;SDS011;41295;48.518;9.206;2023-05-07T06:23:12;10.70;;;4.97;;
32250;SDS011;41295;48.518;9.206;2023-05-07T06:25:21;10.50;;;4.90;;
32250;SDS011;41295;48.518;9.206;2023-05-07T06:27:23;8.68;;;4.85;;
32250;SDS011;41295;48.518;9.206;2023-05-07T06:29:26;6.38;;;4.63;;
32250;SDS011;41295;48.518;9.206;2023-05-07T06:31:29;8.48;;;5.38;;
32250;SDS011;41295;48.518;9.206;2023-05-07T06:33:33;11.73;;;4.78;;
32250;SDS011;41295;48.518;9.206;2023-05-07T06:35:37;7.10;;;5.00;;
32250;SDS011;41295;48.518;9.206;2023-05-07T06:37:40;9.90;;;4.82;;
32250;SDS011;41295;48.518;9.206;2023-05-07T06:39:43;9.77;;;4.88;;
32250;SDS011;41295;48.518;9.206;2023-05-07T06:41:46;5.72;;;4.47;;
32250;SDS011;41295;48.518;9.206;2023-05-07T06:43:48;7.38;;;4.47;;
32250;SDS011;41295;48.518;9.206;2023-05-07T06:45:51;7.35;;;4.60;;
32250;SDS011;41295;48.518;9.206;2023-05-07T06:47:54;5.85;;;3.72;;
32250;SDS011;41295;48.518;9.206;2023-05-07T06:49:56;9.35;;;4.57;;
32250;SDS011;41295;48.518;9.206;2023-05-07T06:52:00;8.45;;;5.10;;
32250;SDS011;41295;48.518;9.206;2023-05-07T06:54:03;7.40;;;5.28;;
32250;SDS011;41295;48.518;9.206;2023-05-07T06:56:06;10.30;;;4.82;;
32250;SDS011;41295;48.518;9.206;2023-05-07T06:58:09;5.75;;;4.40;;
32250;SDS011;41295;48.518;9.206;2023-05-07T07:00:12;7.18;;;4.35;;
32250;SDS011;41295;48.518;9.206;2023-05-07T07:02:15;9.25;;;5.45;;
32250;SDS011;41295;48.518;9.206;2023-05-07T07:04:18;7.95;;;4.80;;
32250;SDS011;41295;48.518;9.206;2023-05-07T07:06:23;11.05;;;4.90;;
32250;SDS011;41295;48.518;9.206;2023-05-07T07:08:27;9.70;;;5.05;;
32250;SDS011;41295;48.518;9.206;2023-05-07T07:10:30;13.02;;;4.97;;
32250;SDS011;41295;48.518;9.206;2023-05-07T07:12:33;8.57;;;5.05;;
32250;SDS011;41295;48.518;9.206;2023-05-07T07:14:35;6.95;;;4.65;;
32250;SDS011;41295;48.518;9.206;2023-05-07T07:16:38;9.30;;;4.97;;
32250;SDS011;41295;48.518;9.206;2023-05-07T07:18:41;5.55;;;4.88;;
32250;SDS011;41295;48.518;9.206;2023-05-07T07:20:43;7.32;;;5.40;;
32250;SDS011;41295;48.518;9.206;2023-05-07T07:22:46;10.77;;;5.00;;
32250;SDS011;41295;48.518;9.206;2023-05-07T07:24:50;11.63;;;4.63;;
32250;SDS011;41295;48.518;9.206;2023-05-07T07:26:53;9.40;;;4.95;;
32250;SDS011;41295;48.518;9.206;2023-05-07T07:28:56;8.02;;;5.15;;
32250;SDS011;41295;48.518;9.206;2023-05-07T07:30:59;9.90;;;4.32;;
32250;SDS011;41295;48.518;9.206;2023-05-07T07:33:02;8.57;;;4.53;;
32250;SDS011;41295;48.518;9.206;2023-05-07T07:35:05;9.77;;;4.70;;
32250;SDS011;41295;48.518;9.206;2023-05-07T07:37:08;5.78;;;4.90;;
32250;SDS011;41295;48.518;9.206;2023-05-07T07:39:11;7.15;;;4.90;;
32250;SDS011;41295;48.518;9.206;2023-05-07T07:41:15;5.53;;;4.40;;
32250;SDS011;41295;48.518;9.206;2023-05-07T07:43:17;7.43;;;4.47;;
32250;SDS011;41295;48.518;9.206;2023-05-07T07:45:20;7.72;;;4.65;;
32250;SDS011;41295;48.518;9.206;2023-05-07T07:47:23;6.63;;;4.32;;
32250;SDS011;41295;48.518;9.206;2023-05-07T07:49:26;9.38;;;4.85;;
32250;SDS011;41295;48.518;9.206;2023-05-07T07:51:28;8.43;;;4.45;;
32250;SDS011;41295;48.518;9.206;2023-05-07T07:53:31;11.50;;;5.10;;
32250;SDS011;41295;48.518;9.206;2023-05-07T07:55:37;5.35;;;4.50;;
32250;SDS011;41295;48.518;9.206;2023-05-07T07:57:42;13.98;;;4.53;;
32250;SDS011;41295;48.518;9.206;2023-05-07T07:59:44;7.45;;;4.63;;
32250;SDS011;41295;48.518;9.206;2023-05-07T08:01:47;7.22;;;4.47;;
32250;SDS011;41295;48.518;9.206;2023-05-07T08:03:55;5.50;;;4.05;;
32250;SDS011;41295;48.518;9.206;2023-05-07T08:05:59;11.07;;;5.07;;
32250;SDS011;41295;48.518;9.206;2023-05-07T08:08:01;7.97;;;4.60;;
32250;SDS011;41295;48.518;9.206;2023-05-07T08:10:04;6.78;;;3.78;;
32250;SDS011;41295;48.518;9.206;2023-05-07T08:12:07;6.38;;;4.55;;
32250;SDS011;41295;48.518;9.206;2023-05-07T08:14:11;6.82;;;4.05;;
32250;SDS011;41295;48.518;9.206;2023-05-07T08:16:14;6.97;;;4.20;;
32250;SDS011;41295;48.518;9.206;2023-05-07T08:18:17;6.30;;;4.15;;
32250;SDS011;41295;48.518;9.206;2023-05-07T08:20:19;5.90;;;4.18;;
32250;SDS011;41295;48.518;9.206;2023-05-07T08:22:22;6.00;;;4.55;;
32250;SDS011;41295;48.518;9.206;2023-05-07T08:24:25;9.23;;;4.40;;
32250;SDS011;41295;48.518;9.206;2023-05-07T08:26:27;7.82;;;4.07;;
32250;SDS011;41295;48.518;9.206;2023-05-07T08:28:30;7.05;;;4.80;;
32250;SDS011;41295;48.518;9.206;2023-05-07T08:30:34;10.07;;;4.57;;
32250;SDS011;41295;48.518;9.206;2023-05-07T08:32:36;4.75;;;3.97;;
32250;SDS011;41295;48.518;9.206;2023-05-07T08:34:39;6.60;;;4.25;;
32250;SDS011;41295;48.518;9.206;2023-05-07T08:36:44;6.72;;;4.65;;
32250;SDS011;41295;48.518;9.206;2023-05-07T08:38:48;6.60;;;4.45;;
32250;SDS011;41295;48.518;9.206;2023-05-07T08:40:50;7.78;;;4.38;;
32250;SDS011;41295;48.518;9.206;2023-05-07T08:42:53;5.93;;;4.63;;
32250;SDS011;41295;48.518;9.206;2023-05-07T08:44:57;7.13;;;4.47;;
32250;SDS011;41295;48.518;9.206;2023-05-07T08:47:03;4.70;;;3.67;;
32250;SDS011;41295;48.518;9.206;2023-05-07T08:49:08;7.78;;;4.45;;
32250;SDS011;41295;48.518;9.206;2023-05-07T08:51:12;7.38;;;4.45;;
32250;SDS011;41295;48.518;9.206;2023-05-07T08:53:15;8.25;;;4.82;;
32250;SDS011;41295;48.518;9.206;2023-05-07T08:55:18;9.15;;;4.40;;
32250;SDS011;41295;48.518;9.206;2023-05-07T08:57:22;13.95;;;5.13;;
32250;SDS011;41295;48.518;9.206;2023-05-07T08:59:25;6.53;;;4.45;;
32250;SDS011;41295;48.518;9.206;2023-05-07T09:01:28;9.23;;;4.63;;
32250;SDS011;41295;48.518;9.206;2023-05-07T09:03:32;7.00;;;5.28;;
32250;SDS011;41295;48.518;9.206;2023-05-07T09:05:35;10.55;;;5.18;;
32250;SDS011;41295;48.518;9.206;2023-05-07T09:07:38;7.05;;;4.63;;
32250;SDS011;41295;48.518;9.206;2023-05-07T09:09:40;9.23;;;5.05;;
32250;SDS011;41295;48.518;9.206;2023-05-07T09:11:43;7.68;;;4.43;;
32250;SDS011;41295;48.518;9.206;2023-05-07T09:13:45;7.70;;;4.18;;
32250;SDS011;41295;48.518;9.206;2023-05-07T09:15:48;7.28;;;4.55;;
32250;SDS011;41295;48.518;9.206;2023-05-07T09:17:51;5.85;;;4.55;;
32250;SDS011;41295;48.518;9.206;2023-05-07T09:19:55;6.97;;;4.13;;
32250;SDS011;41295;48.518;9.206;2023-05-07T09:21:58;6.15;;;4.85;;
32250;SDS011;41295;48.518;9.206;2023-05-07T09:24:04;7.43;;;4.97;;
32250;SDS011;41295;48.518;9.206;2023-05-07T09:26:07;5.90;;;4.50;;
32250;SDS011;41295;48.518;9.206;2023-05-07T09:28:13;9.32;;;5.13;;
32250;SDS011;41295;48.518;9.206;2023-05-07T09:30:15;7.25;;;4.60;;
32250;SDS011;41295;48.518;9.206;2023-05-07T09:32:18;6.43;;;4.00;;
32250;SDS011;41295;48.518;9.206;2023-05-07T09:34:21;6.88;;;3.67;;
32250;SDS011;41295;48.518;9.206;2023-05-07T09:36:26;6.13;;;4.28;;
32250;SDS011;41295;48.518;9.206;2023-05-07T09:38:29;5.85;;;4.30;;
32250;SDS011;41295;48.518;9.206;2023-05-07T09:40:32;5.55;;;4.03;;
32250;SDS011;41295;48.518;9.206;2023-05-07T09:42:34;6.25;;;3.60;;
32250;SDS011;41295;48.518;9.206;2023-05-07T09:44:37;8.05;;;4.20;;
32250;SDS011;41295;48.518;9.206;2023-05-07T09:46:42;6.05;;;4.00;;
32250;SDS011;41295;48.518;9.206;2023-05-07T09:48:45;6.85;;;4.32;;
32250;SDS011;41295;48.518;9.206;2023-05-07T09:50:51;5.93;;;3.70;;
32250;SDS011;41295;48.518;9.206;2023-05-07T09:53:00;5.22;;;3.33;;
32250;SDS011;41295;48.518;9.206;2023-05-07T09:55:03;5.13;;;3.00;;
32250;SDS011;41295;48.518;9.206;2023-05-07T09:57:07;4.47;;;3.03;;
32250;SDS011;41295;48.518;9.206;2023-05-07T09:59:12;5.13;;;3.35;;
32250;SDS011;41295;48.518;9.206;2023-05-07T10:01:16;4.68;;;3.00;;
32250;SDS011;41295;48.518;9.206;2023-05-07T10:03:20;3.58;;;2.80;;
32250;SDS011;41295;48.518;9.206;2023-05-07T10:05:24;4.90;;;3.28;;
32250;SDS011;41295;48.518;9.206;2023-05-07T10:07:28;4.90;;;3.47;;
32250;SDS011;41295;48.518;9.206;2023-05-07T10:09:33;4.93;;;3.03;;
32250;SDS011;41295;48.518;9.206;2023-05-07T10:11:39;5.40;;;4.03;;
32250;SDS011;41295;48.518;9.206;2023-05-07T10:13:43;4.20;;;3.20;;
32250;SDS011;41295;48.518;9.206;2023-05-07T10:15:47;5.07;;;3.40;;
32250;SDS011;41295;48.518;9.206;2023-05-07T10:17:51;5.35;;;3.10;;
32250;SDS011;41295;48.518;9.206;2023-05-07T10:19:55;5.57;;;2.97;;
32250;SDS011;41295;48.518;9.206;2023-05-07T10:21:59;6.72;;;2.70;;
32250;SDS011;41295;48.518;9.206;2023-05-07T10:24:08;4.18;;;2.83;;
32250;SDS011;41295;48.518;9.206;2023-05-07T10:26:18;7.88;;;2.80;;
32250;SDS011;41295;48.518;9.206;2023-05-07T10:28:24;4.10;;;2.80;;
32250;SDS011;41295;48.518;9.206;2023-05-07T10:30:32;8.38;;;2.88;;
32250;SDS011;41295;48.518;9.206;2023-05-07T10:34:48;3.65;;;2.55;;
32250;SDS011;41295;48.518;9.206;2023-05-07T10:36:55;3.92;;;2.72;;
32250;SDS011;41295;48.518;9.206;2023-05-07T10:38:59;4.57;;;2.45;;
32250;SDS011;41295;48.518;9.206;2023-05-07T10:41:01;5.03;;;2.33;;
32250;SDS011;41295;48.518;9.206;2023-05-07T10:43:08;4.25;;;2.65;;
32250;SDS011;41295;48.518;9.206;2023-05-07T10:45:12;3.30;;;2.30;;
32250;SDS011;41295;48.518;9.206;2023-05-07T10:47:15;5.10;;;2.78;;
32250;SDS011;41295;48.518;9.206;2023-05-07T10:49:20;3.95;;;2.70;;
32250;SDS011;41295;48.518;9.206;2023-05-07T10:51:24;5.50;;;2.33;;
32250;SDS011;41295;48.518;9.206;2023-05-07T10:53:27;4.43;;;2.55;;
32250;SDS011;41295;48.518;9.206;2023-05-07T10:55:29;5.90;;;2.45;;
32250;SDS011;41295;48.518;9.206;2023-05-07T10:57:33;3.83;;;2.60;;
32250;SDS011;41295;48.518;9.206;2023-05-07T10:59:38;4.65;;;2.45;;
32250;SDS011;41295;48.518;9.206;2023-05-07T11:01:50;3.95;;;2.63;;
32250;SDS011;41295;48.518;9.206;2023-05-07T11:06:16;4.03;;;2.67;;
32250;SDS011;41295;48.518;9.206;2023-05-07T11:08:18;2.97;;;2.13;;
32250;SDS011;41295;48.518;9.206;2023-05-07T11:10:21;6.22;;;2.65;;
32250;SDS011;41295;48.518;9.206;2023-05-07T11:14:50;4.40;;;2.55;;
32250;SDS011;41295;48.518;9.206;2023-05-07T11:17:00;4.70;;;2.63;;
32250;SDS011;41295;48.518;9.206;2023-05-07T11:19:04;3.70;;;2.60;;
32250;SDS011;41295;48.518;9.206;2023-05-07T11:21:07;4.25;;;2.45;;
32250;SDS011;41295;48.518;9.206;2023-05-07T11:23:17;4.78;;;2.30;;
32250;SDS011;41295;48.518;9.206;2023-05-07T11:25:58;2.88;;;2.38;;
32250;SDS011;41295;48.518;9.206;2023-05-07T11:28:05;4.55;;;2.42;;
32250;SDS011;41295;48.518;9.206;2023-05-07T11:30:10;6.00;;;2.42;;
32250;SDS011;41295;48.518;9.206;2023-05-07T11:32:22;5.05;;;2.75;;
32250;SDS011;41295;48.518;9.206;2023-05-07T11:34:25;3.90;;;2.63;;
32250;SDS011;41295;48.518;9.206;2023-05-07T11:36:30;5.22;;;2.80;;
32250;SDS011;41295;48.518;9.206;2023-05-07T11:38:34;3.90;;;2.65;;
32250;SDS011;41295;48.518;9.206;2023-05-07T11:40:48;3.22;;;2.58;;
32250;SDS011;41295;48.518;9.206;2023-05-07T11:42:51;7.65;;;2.85;;
32250;SDS011;41295;48.518;9.206;2023-05-07T11:44:53;3.30;;;2.25;;
32250;SDS011;41295;48.518;9.206;2023-05-07T11:46:57;3.22;;;2.50;;
32250;SDS011;41295;48.518;9.206;2023-05-07T11:49:01;5.65;;;2.97;;
32250;SDS011;41295;48.518;9.206;2023-05-07T11:51:05;6.70;;;2.78;;
32250;SDS011;41295;48.518;9.206;2023-05-07T11:53:10;6.93;;;2.45;;
32250;SDS011;41295;48.518;9.206;2023-05-07T11:55:14;5.47;;;2.60;;
32250;SDS011;41295;48.518;9.206;2023-05-07T11:57:20;6.28;;;2.58;;
32250;SDS011;41295;48.518;9.206;2023-05-07T11:59:23;3.97;;;2.60;;
32250;SDS011;41295;48.518;9.206;2023-05-07T12:01:26;3.63;;;2.45;;
32250;SDS011;41295;48.518;9.206;2023-05-07T12:03:30;6.47;;;3.15;;
32250;SDS011;41295;48.518;9.206;2023-05-07T12:05:36;5.32;;;3.35;;
32250;SDS011;41295;48.518;9.206;2023-05-07T12:07:42;5.40;;;3.30;;
32250;SDS011;41295;48.518;9.206;2023-05-07T12:09:45;7.10;;;3.05;;
32250;SDS011;41295;48.518;9.206;2023-05-07T12:11:48;6.03;;;3.08;;
32250;SDS011;41295;48.518;9.206;2023-05-07T12:13:51;14.02;;;2.88;;
32250;SDS011;41295;48.518;9.206;2023-05-07T12:15:59;5.40;;;3.38;;
32250;SDS011;41295;48.518;9.206;2023-05-07T12:18:04;6.07;;;3.30;;
32250;SDS011;41295;48.518;9.206;2023-05-07T12:20:09;6.18;;;3.10;;
32250;SDS011;41295;48.518;9.206;2023-05-07T12:22:12;6.43;;;3.33;;
32250;SDS011;41295;48.518;9.206;2023-05-07T12:24:15;5.72;;;3.10;;
32250;SDS011;41295;48.518;9.206;2023-05-07T12:26:22;5.30;;;2.55;;
32250;SDS011;41295;48.518;9.206;2023-05-07T12:28:25;3.92;;;2.88;;
32250;SDS011;41295;48.518;9.206;2023-05-07T12:30:28;4.50;;;2.20;;